Latest Weather Observations for Trangie

IDN60801

Issued at 9:35 pm EST Wednesday 23 July 2014 (issued every 30 minutes, with the page automatically refreshed every 10 minutes)

About weather observations | Map of weather stations | Latest weather observations for NSW | Other Formats
Station Details ID: 051049 Name: TRANGIE RESEARCH STATION AWS Lat: -31.99 Lon: 147.95 Height: 215.0 m
Data from the previous 72 hours. | See also: Recent months at Trangie
Date/Time
EST
Temp
°C
App
Temp
°C
Dew
Point
Rel
Hum
%
Delta-T
°C
Wind Press
QNH
hPa
Press
MSL
hPa
Rain
since 9 am
mm
Dir
 
Spd
km/h
Gust
km/h
Spd
kts
Gust
kts
23/09:30pm 10.0 7.7 5.8 75 1.9 E 7 11 4 6 1020.7 - 0.0
23/09:00pm 9.2 7.1 5.6 78 1.6 ESE 6 7 3 4 1020.7 1021.1 0.0
23/08:30pm 9.9 9.1 6.4 79 1.6 CALM 0 6 0 3 1020.5 - 0.0
23/08:00pm 10.3 9.6 6.8 79 1.7 CALM 0 6 0 3 1020.6 - 0.0
23/07:30pm 11.0 10.3 7.1 77 1.9 CALM 0 0 0 0 1020.7 - 0.0
23/07:00pm 11.3 10.7 7.2 76 2.0 CALM 0 0 0 0 1020.5 - 0.0
23/06:30pm 11.8 11.2 7.3 74 2.2 CALM 0 0 0 0 1020.4 - 0.0
23/06:00pm 12.1 11.5 7.2 72 2.4 CALM 0 6 0 3 1020.1 1020.5 0.0
23/05:30pm 13.4 11.8 6.5 63 3.3 ESE 4 9 2 5 1019.9 - 0.0
23/05:00pm 15.6 14.1 6.6 55 4.4 ESE 4 9 2 5 1019.9 - 0.0
23/04:30pm 16.7 14.7 7.1 53 4.8 ESE 7 9 4 5 1019.8 - 0.0
23/04:00pm 17.4 15.4 6.9 50 5.3 E 7 13 4 7 1019.9 - 0.0
23/03:30pm 17.7 15.1 6.3 47 5.7 E 9 13 5 7 1020.0 - 0.0
23/03:00pm 17.3 15.2 6.5 49 5.4 NE 7 13 4 7 1020.3 1020.7 0.0
23/02:30pm 17.4 15.7 7.5 52 5.0 N 6 9 3 5 1020.4 - 0.0
23/02:00pm 17.5 15.3 7.8 53 5.0 NE 9 13 5 7 1020.7 - 0.0
23/01:30pm 16.7 14.4 7.4 54 4.7 NE 9 13 5 7 1020.8 - 0.0
23/01:00pm 16.9 15.2 8.3 57 4.4 E 7 11 4 6 1021.2 - 0.0
23/12:30pm 16.5 14.1 8.5 59 4.1 E 11 17 6 9 1021.7 - 0.0
23/12:00pm 15.5 13.2 9.0 65 3.4 ENE 11 19 6 10 1022.2 1022.6 0.0
23/11:30am 14.9 11.9 9.3 69 2.9 E 15 20 8 11 1023.0 - 0.0
23/11:00am 13.2 10.5 8.9 75 2.2 E 13 20 7 11 1023.7 - 0.0
23/10:30am 12.5 9.3 8.6 77 2.0 E 15 20 8 11 1024.3 - 0.0
23/10:00am 12.6 10.5 9.6 82 1.5 E 11 19 6 10 1024.5 - 0.0
23/09:30am 10.7 8.0 8.8 88 0.9 E 13 20 7 11 1024.9 - 0.0
23/09:00am 9.1 5.8 8.0 93 0.5 E 15 22 8 12 1024.6 1025.0 0.0
23/08:30am 8.4 5.9 8.0 97 0.2 E 11 20 6 11 1024.5 - 0.0
23/08:00am 7.1 4.3 7.0 99 0.0 E 11 15 6 8 1024.3 - 0.0
23/07:30am 5.9 2.9 5.8 99 0.0 E 11 15 6 8 1023.9 - 0.0
23/07:00am 5.6 2.5 5.5 99 0.0 E 11 17 6 9 1023.6 - 0.0
23/06:30am 5.2 2.4 5.1 99 0.0 E 9 13 5 7 1023.3 - 0.0
23/06:00am 4.8 2.3 4.7 99 0.0 E 7 9 4 5 1023.1 1023.5 0.0
23/05:30am 4.4 2.0 4.3 99 0.0 E 6 9 3 5 1022.8 - 0.0
23/05:00am 4.3 3.0 4.2 99 0.0 CALM 0 0 0 0 1022.8 - 0.0
23/04:30am 4.2 1.8 4.1 99 0.0 ESE 6 7 3 4 1022.6 - 0.0
23/04:00am 4.6 2.1 4.5 99 0.0 E 7 9 4 5 1022.4 - 0.0
23/03:30am 4.4 2.0 4.3 99 0.0 SE 6 9 3 5 1022.4 - 0.0
23/03:00am 5.1 2.3 5.0 99 0.0 SE 9 11 5 6 1022.3 1022.7 0.0
23/02:30am 5.6 2.9 5.5 99 0.0 SE 9 13 5 7 1022.1 - 0.0
23/02:00am 4.7 2.2 4.6 99 0.0 SE 7 11 4 6 1022.2 - 0.0
23/01:30am 5.6 3.3 5.5 99 0.0 SSE 7 11 4 6 1022.7 - 0.0
23/01:00am 5.4 2.6 5.3 99 0.0 SE 9 11 5 6 1022.6 - 0.0
23/12:30am 5.6 3.4 5.5 99 0.0 SE 6 9 3 5 1022.8 - 0.0
23/12:00am 6.0 3.7 5.9 99 0.0 SE 7 9 4 5 1023.1 1023.5 0.0
 
Date/Time
EST
Temp
°C
App
Temp
°C
Dew
Point
Rel
Hum
%
Delta-T
°C
Wind Press
QNH
hPa
Press
MSL
hPa
Rain
since 9 am
mm
Dir
 
Spd
km/h
Gust
km/h
Spd
kts
Gust
kts
22/11:30pm 6.6 4.7 6.5 99 0.0 SSE 6 7 3 4 1023.4 - 0.0
22/11:00pm 6.7 4.7 6.4 98 0.1 S 6 7 3 4 1023.6 - 0.0
22/10:30pm 6.5 4.4 5.8 95 0.3 S 6 7 3 4 1023.7 - 0.0
22/10:00pm 6.8 4.7 5.7 93 0.5 S 6 6 3 3 1023.5 - 0.0
22/09:30pm 7.9 6.0 6.7 92 0.6 S 6 7 3 4 1023.3 - 0.0
22/09:00pm 8.6 6.7 6.9 89 0.8 SSE 6 9 3 5 1023.0 1023.4 0.0
22/08:30pm 9.1 7.1 7.2 88 0.9 SSE 7 9 4 5 1022.9 - 0.0
22/08:00pm 9.1 7.1 7.2 88 0.9 S 7 9 4 5 1022.9 - 0.0
22/07:30pm 9.2 7.2 7.2 87 1.0 S 7 9 4 5 1022.6 - 0.0
22/07:00pm 9.8 7.9 7.6 86 1.1 S 7 9 4 5 1022.6 - 0.0
22/06:30pm 10.4 8.6 7.3 81 1.5 S 6 7 3 4 1022.6 - 0.0
22/06:00pm 11.6 9.7 7.5 76 2.0 S 7 11 4 6 1022.4 1022.8 0.0
22/05:30pm 13.6 11.9 8.2 70 2.7 S 7 9 4 5 1022.2 - 0.0
22/05:00pm 15.3 13.6 8.5 64 3.5 S 7 9 4 5 1022.0 - 0.0
22/04:30pm 16.4 14.3 8.1 58 4.2 S 9 17 5 9 1021.8 - 0.0
22/04:00pm 16.8 13.9 8.0 56 4.5 S 13 20 7 11 1021.7 - 0.0
22/03:30pm 16.9 14.5 8.6 58 4.3 SSE 11 17 6 9 1021.6 - 0.0
22/03:00pm 17.2 14.5 8.9 58 4.3 SSE 13 22 7 12 1021.6 1022.0 0.0
22/02:30pm 17.6 14.5 8.7 56 4.6 S 15 20 8 11 1021.6 - 0.0
22/02:00pm 17.4 14.7 9.1 58 4.4 S 13 26 7 14 1021.7 - 0.0
22/01:30pm 17.4 15.1 9.1 58 4.4 S 11 19 6 10 1021.7 - 0.0
22/01:00pm 17.3 15.5 9.5 60 4.1 SE 9 15 5 8 1022.1 - 0.0
22/12:30pm 16.5 14.7 9.4 63 3.7 SE 9 15 5 8 1022.5 - 0.0
22/12:00pm 16.2 14.6 10.1 67 3.2 SSE 9 15 5 8 1023.0 1023.4 0.0
22/11:30am 15.5 13.8 9.8 69 3.0 ESE 9 13 5 7 1023.7 - 0.0
22/11:00am 14.8 13.1 9.8 72 2.6 SE 9 17 5 9 1023.8 - 0.0
22/10:30am 14.2 12.5 9.8 75 2.3 ESE 9 15 5 8 1024.1 - 0.0
22/10:00am 13.0 11.2 9.6 80 1.8 ESE 9 17 5 9 1024.2 - 0.0
22/09:30am 11.8 9.9 9.2 84 1.3 SE 9 15 5 8 1024.0 - 0.0
22/09:00am 10.2 7.9 7.6 84 1.3 SE 9 13 5 7 1023.8 1024.1 0.0
22/08:30am 9.8 8.1 8.2 90 0.8 ESE 7 11 4 6 1023.5 - 0.0
22/08:00am 8.1 6.5 8.0 99 0.0 SE 6 9 3 5 1023.4 - 0.0
22/07:30am 6.1 4.0 6.0 99 0.0 SE 6 7 3 4 1023.1 - 0.0
22/07:00am 6.0 3.7 5.9 99 0.0 SE 7 11 4 6 1022.8 - 0.0
22/06:30am 6.0 3.7 5.9 99 0.0 ESE 7 9 4 5 1022.4 - 0.0
22/06:00am 5.7 3.3 5.4 98 0.1 SSE 7 9 4 5 1022.2 1022.6 0.0
22/05:30am 6.6 5.0 6.5 99 0.0 SE 4 7 2 4 1022.1 - 0.0
22/05:00am 6.6 4.7 6.5 99 0.0 SE 6 7 3 4 1021.9 - 0.0
22/04:30am 6.4 4.4 6.3 99 0.0 SE 6 7 3 4 1021.8 - 0.0
22/04:00am 6.6 5.8 6.5 99 0.0 CALM 0 0 0 0 1021.8 - 0.0
22/03:30am 6.4 4.2 6.3 99 0.0 S 7 9 4 5 1021.7 - 0.0
22/03:00am 6.5 4.8 6.1 97 0.2 SE 4 9 2 5 1021.8 1022.2 0.0
22/02:30am 7.3 5.8 6.9 97 0.2 SE 4 6 2 3 1021.7 - 0.0
22/02:00am 7.5 6.4 6.9 96 0.3 SE 2 6 1 3 1021.8 - 0.0
22/01:30am 7.5 5.6 6.9 96 0.3 ESE 6 9 3 5 1021.8 - 0.0
22/01:00am 7.7 5.7 7.0 95 0.3 SE 7 11 4 6 1022.1 - 0.0
22/12:30am 8.1 6.3 7.3 95 0.4 SSE 6 7 3 4 1022.3 - 0.0
22/12:00am 8.4 6.7 7.5 94 0.4 SE 6 9 3 5 1022.2 1022.6 0.0
 
Date/Time
EST
Temp
°C
App
Temp
°C
Dew
Point
Rel
Hum
%
Delta-T
°C
Wind Press
QNH
hPa
Press
MSL
hPa
Rain
since 9 am
mm
Dir
 
Spd
km/h
Gust
km/h
Spd
kts
Gust
kts
21/11:30pm 9.2 7.7 8.3 94 0.4 SE 6 9 3 5 1022.2 - 0.0
21/11:00pm 9.0 7.4 7.8 92 0.6 SSE 6 7 3 4 1022.5 - 0.0
21/10:30pm 9.5 7.7 7.9 90 0.8 SE 7 9 4 5 1022.5 - 0.0
21/10:00pm 9.9 8.3 8.2 89 0.8 SSE 6 9 3 5 1022.7 - 0.0
21/09:30pm 10.4 8.7 8.5 88 0.9 SSE 7 9 4 5 1022.9 - 0.0
21/09:00pm 10.6 9.9 8.7 88 0.9 SSE 2 7 1 4 1022.8 1023.2 0.0
21/08:30pm 10.6 9.2 8.7 88 0.9 SSE 6 9 3 5 1022.6 - 0.0
21/08:00pm 10.7 9.7 8.8 88 0.9 SSE 4 7 2 4 1022.6 - 0.0
21/07:30pm 11.1 10.9 9.0 87 1.1 CALM 0 0 0 0 1022.3 - 0.0
21/07:00pm 11.1 10.5 9.0 87 1.1 S 2 6 1 3 1022.3 - 0.0
21/06:30pm 11.5 10.2 9.1 85 1.2 S 6 7 3 4 1022.1 - 0.0
21/06:00pm 12.2 11.2 8.7 79 1.8 S 4 6 2 3 1021.9 1022.3 0.0
21/05:30pm 13.2 11.9 9.1 76 2.1 S 6 7 3 4 1021.7 - 0.0
21/05:00pm 15.1 13.6 9.2 68 3.1 S 7 11 4 6 1021.5 - 0.0
21/04:30pm 16.2 14.0 9.4 64 3.6 S 11 13 6 7 1021.6 - 0.0
21/04:00pm 16.4 15.8 9.1 62 3.8 SSW 2 7 1 4 1021.5 - 0.0
21/03:30pm 16.6 14.7 9.1 61 3.9 SW 9 11 5 6 1021.5 - 0.0
21/03:00pm 16.8 15.1 8.2 57 4.4 SSW 7 11 4 6 1021.6 1022.0 0.0
21/02:30pm 16.8 15.1 8.5 58 4.3 WSW 7 11 4 6 1021.7 - 0.0
21/02:00pm 16.9 14.8 8.3 57 4.4 NNW 9 15 5 8 1021.7 - 0.0
21/01:30pm 17.7 16.1 8.8 56 4.7 WNW 7 11 4 6 1021.9 - 0.0
21/01:00pm 16.5 14.8 8.2 58 4.3 NNE 7 11 4 6 1022.3 - 0.0
21/12:30pm 16.5 15.0 9.2 62 3.8 ENE 7 11 4 6 1022.8 - 0.0
21/12:00pm 15.9 13.9 8.6 62 3.7 ENE 9 15 5 8 1023.3 1023.6 0.0
21/11:30am 15.3 13.1 9.2 67 3.2 ENE 11 15 6 8 1023.9 - 0.0
21/11:00am 14.3 11.2 8.7 69 2.9 ENE 15 19 8 10 1024.2 - 0.0
21/10:30am 13.0 10.6 8.7 75 2.2 E 11 17 6 9 1024.6 - 0.0
21/10:00am 12.1 9.3 8.4 78 1.9 E 13 20 7 11 1024.9 - 0.0
21/09:30am 11.0 8.0 9.3 89 0.9 E 15 24 8 13 1024.9 - 0.0
21/09:00am 9.0 7.0 8.7 98 0.1 E 9 13 5 7 1024.9 1025.3 0.2
21/08:30am 7.7 5.4 7.6 99 0.0 E 9 13 5 7 1024.8 - 0.2
21/08:00am 7.0 4.6 6.9 99 0.0 E 9 11 5 6 1024.7 - 0.2
21/07:30am 5.9 3.6 5.8 99 0.0 E 7 11 4 6 1024.6 - 0.2
21/07:00am 4.7 2.2 4.6 99 0.0 E 7 11 4 6 1024.4 - 0.2
21/06:30am 4.1 1.6 4.0 99 0.0 ESE 6 9 3 5 1024.2 - 0.2
21/06:00am 4.4 1.8 4.3 99 0.0 ESE 7 11 4 6 1024.0 1024.3 0.2
21/05:30am 4.5 1.9 4.4 99 0.0 SE 7 11 4 6 1023.9 - 0.2
21/05:00am 4.0 1.3 3.9 99 0.0 SE 7 11 4 6 1023.9 - 0.2
21/04:30am 3.8 1.1 3.7 99 0.0 SE 7 11 4 6 1023.9 - 0.2
21/04:00am 3.6 0.9 3.5 99 0.0 SE 7 9 4 5 1024.0 - 0.2
21/03:30am 4.0 1.5 3.9 99 0.0 SE 6 9 3 5 1024.1 - 0.2
21/03:00am 4.5 1.9 4.4 99 0.0 ESE 7 9 4 5 1024.0 1024.3 0.2
21/02:30am 4.4 1.8 4.3 99 0.0 SE 7 11 4 6 1024.1 - 0.2
21/02:00am 4.4 1.8 4.3 99 0.0 SE 7 9 4 5 1024.1 - 0.2
21/01:30am 4.4 2.0 4.3 99 0.0 SE 6 9 3 5 1024.5 - 0.2
21/01:00am 4.2 1.6 4.1 99 0.0 SE 7 13 4 7 1024.7 - 0.2
21/12:30am 4.4 1.8 4.0 97 0.2 SE 7 9 4 5 1024.6 - 0.2
21/12:00am 4.8 2.2 4.4 97 0.2 SE 7 9 4 5 1024.9 1025.3 0.2
 
Date/Time
EST
Temp
°C
App
Temp
°C
Dew
Point
Rel
Hum
%
Delta-T
°C
Wind Press
QNH
hPa
Press
MSL
hPa
Rain
since 9 am
mm
Dir
 
Spd
km/h
Gust
km/h
Spd
kts
Gust
kts
20/11:30pm 5.4 2.5 4.8 96 0.3 SE 9 13 5 7 1024.9 - 0.2
20/11:00pm 5.9 3.1 5.0 94 0.4 SSE 9 13 5 7 1025.1 - 0.2
20/10:30pm 5.7 3.2 4.5 92 0.5 S 7 13 4 7 1025.1 - 0.2
20/10:00pm 5.9 3.4 4.9 93 0.4 SSE 7 11 4 6 1025.3 - 0.2

Other Formats:

Comma delimited format used in spreadsheet applications
http://www.bom.gov.au/fwo/IDN60801/IDN60801.95710.axf

JavaScript Object Notation format (JSON) in row-major order
http://www.bom.gov.au/fwo/IDN60801/IDN60801.95710.json